Time;durP1;ratioP1;P1;durP2;ratioP2;P2;SDS_P1;SDS_P2;PMS_P1;PMS_P2;Temp;Humidity;BMP_temperature;BMP_pressure;BME280_temperature;BME280_humidity;BME280_pressure;Samples;Min_cycle;Max_cycle;Signal;HPM_P1;HPM_P2
2022/05/19 00:01:01;;;;;;;2.03;1.50;;;;;;;11.15;69.46;102634.59;2509738;23;20396;-68
2022/05/19 00:02:03;;;;;;;4.70;1.33;;;;;;;11.14;69.38;102653.22;2513007;23;20454;-68
2022/05/19 00:03:04;;;;;;;3.00;1.27;;;;;;;11.04;69.40;102648.41;2521605;23;20158;-68
2022/05/19 00:04:04;;;;;;;2.47;1.37;;;;;;;11.02;69.34;102652.75;2521647;23;20465;-68
2022/05/19 00:05:05;;;;;;;6.87;1.10;;;;;;;10.93;69.46;102660.59;2521643;23;20177;-68
2022/05/19 00:06:08;;;;;;;2.30;1.20;;;;;;;9.66;69.09;102450.94;2508923;23;20526;-68
2022/05/19 00:07:10;;;;;;;1.95;1.52;;;;;;;10.79;69.68;102641.09;2508532;23;20395;-69
2022/05/19 00:08:10;;;;;;;2.00;1.30;;;;;;;10.86;69.75;102653.03;2508191;23;20162;-68
2022/05/19 00:09:11;;;;;;;1.93;1.30;;;;;;;10.81;69.07;102653.38;2508997;23;20238;-68
2022/05/19 00:10:12;;;;;;;3.67;1.40;;;;;;;10.43;69.41;102608.72;2520819;23;20168;-68
2022/05/19 00:11:19;;;;;;;1.53;1.37;;;;;;;10.75;69.75;102659.66;2521700;23;20181;-68
2022/05/19 00:12:22;;;;;;;2.15;1.50;;;;;;;10.72;69.69;102652.91;2521726;23;20138;-68
2022/05/19 00:13:24;;;;;;;3.80;1.30;;;;;;;10.38;69.83;102615.44;2521615;23;20230;-68
2022/05/19 00:14:24;;;;;;;1.48;1.30;;;;;;;10.66;70.10;102653.69;2521685;23;20838;-68
2022/05/19 00:15:25;;;;;;;2.17;1.30;;;;;;;9.91;69.80;102543.34;2521607;23;20177;-68
2022/05/19 00:16:26;;;;;;;3.87;1.47;;;;;;;10.56;70.01;102655.16;2521672;23;20520;-68
2022/05/19 00:17:27;;;;;;;2.53;1.40;;;;;;;10.58;70.10;102663.09;2520010;23;20150;-68
2022/05/19 00:18:28;;;;;;;4.17;1.60;;;;;;;10.48;70.13;102650.75;2521649;23;20495;-68
2022/05/19 00:19:28;;;;;;;5.73;1.60;;;;;;;10.37;70.59;102654.59;2509010;23;20160;-68
2022/05/19 00:20:29;;;;;;;4.40;1.40;;;;;;;9.97;70.85;102611.06;2508299;23;20181;-68
2022/05/19 00:21:30;;;;;;;4.83;1.30;;;;;;;9.61;70.77;102530.75;2521639;23;20227;-68
2022/05/19 00:22:30;;;;;;;7.27;1.70;;;;;;;9.80;70.78;102569.31;2521661;23;20149;-68
2022/05/19 00:23:31;;;;;;;4.40;1.37;;;;;;;10.38;70.59;102665.31;2521539;23;20153;-68
2022/05/19 00:24:32;;;;;;;5.40;1.40;;;;;;;10.25;70.69;102643.81;2521469;23;20531;-68
2022/05/19 00:25:32;;;;;;;3.93;1.47;;;;;;;10.43;70.18;102664.16;2521648;23;20220;-68
2022/05/19 00:26:33;;;;;;;3.80;1.00;;;;;;;10.43;70.59;102664.97;2521628;23;20157;-68
2022/05/19 00:27:33;;;;;;;3.17;1.33;;;;;;;10.08;70.33;102622.25;2519922;23;20225;-68
2022/05/19 00:28:34;;;;;;;4.67;1.20;;;;;;;10.44;70.44;102674.06;2521640;23;20188;-68
2022/05/19 00:29:34;;;;;;;3.67;1.20;;;;;;;10.24;70.24;102631.91;2521664;23;20159;-68
2022/05/19 00:30:36;;;;;;;3.20;1.40;;;;;;;10.39;70.12;102655.81;2521458;23;20648;-68
2022/05/19 00:31:37;;;;;;;2.03;1.10;;;;;;;10.30;70.46;102643.47;2521006;23;20149;-68
2022/05/19 00:32:37;;;;;;;2.30;1.20;;;;;;;10.34;70.21;102660.91;2521441;23;20154;-68
2022/05/19 00:33:39;;;;;;;1.80;1.17;;;;;;;10.38;70.69;102664.50;2521497;23;20148;-68
2022/05/19 00:34:40;;;;;;;4.75;1.48;;;;;;;10.37;70.90;102671.25;2521485;23;20151;-68
2022/05/19 00:35:41;;;;;;;2.13;1.30;;;;;;;10.37;71.07;102674.00;2521666;23;20153;-68
2022/05/19 00:36:42;;;;;;;1.43;1.00;;;;;;;10.13;70.76;102633.00;2521052;23;20153;-68
2022/05/19 00:37:42;;;;;;;2.03;1.10;;;;;;;10.38;71.00;102662.53;2520468;23;20868;-68
2022/05/19 00:38:43;;;;;;;1.53;1.00;;;;;;;10.39;70.65;102669.69;2521681;23;20503;-68
2022/05/19 00:39:44;;;;;;;1.35;1.17;;;;;;;10.39;70.58;102666.09;2521537;23;20162;-68
2022/05/19 00:40:48;;;;;;;3.37;1.20;;;;;;;10.41;70.36;102677.63;2521580;23;20523;-68
2022/05/19 00:42:43;;;;;;;5.60;1.30;;;;;;;10.43;70.84;102664.16;2520735;23;20502;-68
2022/05/19 00:43:08;;;;;;;3.13;1.30;;;;;;;10.44;70.90;102662.97;2521353;23;20236;-68
2022/05/19 00:44:10;;;;;;;1.60;1.07;;;;;;;10.46;70.89;102666.19;2521409;23;20429;-68
2022/05/19 00:45:11;;;;;;;2.27;1.10;;;;;;;10.49;70.37;102662.63;2521444;23;20470;-68
2022/05/19 00:46:20;;;;;;;4.53;1.27;;;;;;;10.51;70.26;102663.84;2521577;23;20373;-68
2022/05/19 00:47:24;;;;;;;5.18;1.20;;;;;;;10.41;70.75;102663.75;2520020;23;20141;-68
2022/05/19 00:48:30;;;;;;;3.20;1.20;;;;;;;10.33;70.42;102662.09;2521534;23;20604;-68
2022/05/19 00:49:38;;;;;;;1.92;1.10;;;;;;;9.97;70.81;102602.75;2521618;23;20142;-68
2022/05/19 00:50:43;;;;;;;2.40;1.10;;;;;;;10.05;70.74;102615.50;2508810;23;20159;-68
2022/05/19 00:51:47;;;;;;;1.30;1.10;;;;;;;10.37;70.50;102663.72;2509478;23;20378;-68
2022/05/19 00:52:52;;;;;;;2.15;0.90;;;;;;;10.32;70.50;102668.81;2520992;23;20407;-68
2022/05/19 00:53:57;;;;;;;3.07;1.00;;;;;;;10.29;70.70;102669.56;2521452;23;20209;-68
2022/05/19 00:55:08;;;;;;;1.40;0.95;;;;;;;10.14;70.12;102671.41;2521449;23;20395;-68
2022/05/19 00:56:15;;;;;;;2.40;0.73;;;;;;;10.11;70.66;102676.91;2521717;23;20490;-68
2022/05/19 00:57:26;;;;;;;2.92;0.90;;;;;;;10.09;70.82;102673.75;2520311;23;20152;-68
2022/05/19 00:58:38;;;;;;;1.05;0.90;;;;;;;9.58;70.88;102589.66;2521814;23;20137;-68
2022/05/19 00:59:56;;;;;;;1.70;0.80;;;;;;;10.12;70.83;102673.78;2521465;23;20487;-68
2022/05/19 01:00:57;;;;;;;6.88;1.63;;;;;;;9.81;70.43;102623.53;2508801;23;20249;-68
2022/05/19 01:01:57;;;;;;;1.63;1.20;;;;;;;9.59;70.34;102599.56;2508624;23;20247;-68
2022/05/19 01:03:00;;;;;;;1.60;0.83;;;;;;;10.06;70.59;102678.06;2508789;23;20199;-68
2022/05/19 01:04:10;;;;;;;1.17;1.08;;;;;;;10.04;70.71;102676.84;2508619;23;20201;-68
2022/05/19 01:05:16;;;;;;;1.58;1.10;;;;;;;10.06;70.82;102675.28;2508945;23;20244;-68
2022/05/19 01:06:19;;;;;;;2.38;1.23;;;;;;;10.06;71.04;102671.72;2509803;23;20579;-68
2022/05/19 01:07:30;;;;;;;1.13;0.93;;;;;;;10.00;71.37;102665.69;2508096;23;20595;-68
2022/05/19 01:08:45;;;;;;;2.27;1.00;;;;;;;9.67;71.26;102607.56;2508858;23;20143;-68
2022/05/19 01:09:48;;;;;;;2.45;1.15;;;;;;;9.71;71.29;102602.06;2509009;23;20845;-68
2022/05/19 01:10:50;;;;;;;1.67;1.17;;;;;;;9.85;71.08;102614.06;2508669;23;20187;-68
2022/05/19 01:11:55;;;;;;;2.75;1.50;;;;;;;10.23;71.54;102677.44;2508862;23;20388;-68
2022/05/19 01:12:56;;;;;;;2.88;1.30;;;;;;;9.97;71.52;102635.16;2508864;23;20161;-68
2022/05/19 01:13:57;;;;;;;1.40;1.30;;;;;;;9.98;71.58;102634.78;2509639;23;20153;-68
2022/05/19 01:15:00;;;;;;;1.58;1.20;;;;;;;10.35;71.39;102679.16;2509481;23;20161;-68
2022/05/19 01:16:03;;;;;;;1.35;1.23;;;;;;;10.43;71.41;102675.25;2509581;23;20507;-68
2022/05/19 01:17:06;;;;;;;3.58;1.33;;;;;;;10.46;71.33;102682.81;2508738;23;20159;-68
2022/05/19 01:18:08;;;;;;;5.27;1.37;;;;;;;10.20;71.08;102636.63;2508676;23;20166;-68
2022/05/19 01:19:30;;;;;;;3.28;1.40;;;;;;;10.37;70.98;102652.66;2509538;23;20393;-68
2022/05/19 01:20:31;;;;;;;6.50;1.60;;;;;;;10.51;71.28;102674.94;2509557;23;20150;-68
2022/05/19 01:21:32;;;;;;;4.50;1.40;;;;;;;10.53;70.92;102675.34;2509457;23;20374;-68
2022/05/19 01:22:35;;;;;;;4.27;1.23;;;;;;;10.56;70.92;102673.78;2509502;23;20157;-68
2022/05/19 01:24:25;;;;;;;1.43;1.10;;;;;;;10.56;70.82;102669.03;2507864;23;20399;-68
2022/05/19 01:26:05;;;;;;;2.78;1.08;;;;;;;10.43;70.21;102670.50;2482527;23;20730;-68
2022/05/19 01:27:05;;;;;;;1.38;1.00;;;;;;;10.35;69.60;102670.84;2508713;23;20169;-68
2022/05/19 01:28:06;;;;;;;2.50;1.10;;;;;;;10.28;70.03;102665.19;2508655;23;20259;-68
2022/05/19 01:29:08;;;;;;;1.57;1.00;;;;;;;10.24;69.97;102670.72;2509515;23;20159;-68
2022/05/19 01:30:11;;;;;;;1.08;0.98;;;;;;;9.63;69.88;102587.34;2509526;23;20209;-68
2022/05/19 01:31:29;;;;;;;4.67;1.10;;;;;;;9.94;69.42;102649.78;2509493;23;20212;-68
2022/05/19 01:32:30;;;;;;;1.50;0.95;;;;;;;10.17;69.64;102667.06;2509501;23;20414;-68
2022/05/19 01:33:31;;;;;;;1.98;1.00;;;;;;;9.74;69.49;102595.78;2509451;23;20235;-68
2022/05/19 01:34:33;;;;;;;4.20;1.53;;;;;;;10.22;69.71;102672.28;2507772;23;20156;-67
2022/05/19 01:35:34;;;;;;;2.30;1.00;;;;;;;10.19;70.10;102675.81;2508689;23;20155;-67
2022/05/19 01:36:36;;;;;;;2.10;1.07;;;;;;;10.13;70.19;102667.03;2509424;23;20948;-67
2022/05/19 01:37:36;;;;;;;2.33;1.30;;;;;;;10.15;70.01;102675.75;2507128;23;20179;-67
2022/05/19 01:38:37;;;;;;;2.80;1.20;;;;;;;9.82;70.11;102658.34;2508790;23;20404;-68
2022/05/19 01:39:37;;;;;;;1.87;0.93;;;;;;;10.01;70.34;102683.09;2509415;23;20603;-68
2022/05/19 01:41:03;;;;;;;1.23;0.87;;;;;;;9.97;69.94;102680.31;2508650;23;20156;-68
2022/05/19 01:42:16;;;;;;;4.43;0.90;;;;;;;9.98;69.60;102684.66;2508953;23;20140;-68
2022/05/19 01:43:43;;;;;;;0.80;0.80;;;;;;;10.01;69.62;102677.56;2509413;23;20414;-68
2022/05/19 01:45:05;;;;;;;4.80;1.17;;;;;;;9.90;69.40;102679.41;2507618;23;20416;-68
2022/05/19 01:46:24;;;;;;;1.77;1.07;;;;;;;9.83;69.64;102677.34;2508606;23;20383;-68
2022/05/19 01:47:40;;;;;;;2.93;1.13;;;;;;;9.22;70.03;102593.19;2507256;23;20462;-68
2022/05/19 01:48:48;;;;;;;2.07;1.13;;;;;;;9.87;70.04;102686.50;2509451;23;20842;-68
2022/05/19 01:50:24;;;;;;;3.03;1.10;;;;;;;9.84;70.25;102683.72;2509387;23;20383;-68
2022/05/19 01:51:59;;;;;;;3.28;1.00;;;;;;;9.80;70.34;102685.63;2509363;23;20403;-68
2022/05/19 01:53:06;;;;;;;2.05;1.13;;;;;;;9.77;70.54;102684.41;2509441;23;20172;-68
2022/05/19 01:54:16;;;;;;;5.03;1.27;;;;;;;9.79;70.91;102684.03;2508552;23;20322;-68
2022/05/19 01:55:25;;;;;;;6.32;1.40;;;;;;;9.75;70.70;102688.72;2508215;23;20589;-68
2022/05/19 01:56:35;;;;;;;4.17;1.10;;;;;;;9.65;71.21;102675.56;2508547;23;20141;-68
2022/05/19 01:57:55;;;;;;;2.87;1.10;;;;;;;9.74;70.87;102692.69;2507184;23;20405;-68
2022/05/19 01:59:14;;;;;;;4.20;1.10;;;;;;;9.77;71.02;102683.59;2509401;23;20377;-68
2022/05/19 02:00:21;;;;;;;6.13;1.10;;;;;;;9.79;70.98;102698.66;2509360;23;20378;-68
2022/05/19 02:01:25;;;;;;;4.07;1.30;;;;;;;9.77;70.95;102692.72;2509378;23;20410;-68
2022/05/19 02:02:40;;;;;;;2.10;0.90;;;;;;;9.74;70.63;102698.22;2517554;23;20437;-68
2022/05/19 02:04:16;;;;;;;0.70;0.60;;;;;;;9.70;70.77;102694.59;2521401;23;20822;-67
2022/05/19 02:05:40;;;;;;;1.03;0.90;;;;;;;9.58;70.53;102678.25;2520758;23;20379;-68
2022/05/19 02:06:48;;;;;;;1.90;0.80;;;;;;;9.66;71.33;102702.06;2508018;23;20870;-68
2022/05/19 02:07:53;;;;;;;1.40;0.90;;;;;;;9.59;71.27;102701.97;2509225;23;20380;-68
2022/05/19 02:08:58;;;;;;;1.87;1.23;;;;;;;8.81;70.98;102578.38;2521292;23;20393;-68
2022/05/19 02:10:07;;;;;;;6.30;1.57;;;;;;;9.28;71.35;102658.06;2521240;23;20374;-67
2022/05/19 02:11:13;;;;;;;7.70;1.70;;;;;;;9.55;71.78;102701.13;2521160;23;20377;-67
2022/05/19 02:12:14;;;;;;;7.77;2.00;;;;;;;9.49;71.09;102702.63;2521211;23;20367;-68
2022/05/19 02:13:15;;;;;;;7.20;1.97;;;;;;;9.54;71.61;102711.41;2521171;23;20421;-68
2022/05/19 02:14:20;;;;;;;8.83;2.13;;;;;;;9.37;71.58;102695.34;2521160;23;20150;-68
2022/05/19 02:15:24;;;;;;;8.97;1.97;;;;;;;9.22;71.55;102648.50;2521073;23;20388;-68
2022/05/19 02:16:30;;;;;;;8.33;2.03;;;;;;;9.58;71.70;102706.72;2520438;23;20379;-68
2022/05/19 02:17:32;;;;;;;5.93;2.20;;;;;;;9.64;71.40;102705.19;2519559;23;20361;-68
2022/05/19 02:18:33;;;;;;;7.97;2.17;;;;;;;9.67;71.60;102698.13;2521179;23;20442;-68
2022/05/19 02:19:39;;;;;;;10.00;2.30;;;;;;;9.20;71.38;102626.75;2521177;23;20522;-67
2022/05/19 02:20:42;;;;;;;6.00;2.00;;;;;;;9.70;71.37;102702.91;2521265;23;20182;-68
2022/05/19 02:21:44;;;;;;;3.77;2.00;;;;;;;9.75;71.76;102710.88;2508423;23;20395;-68
2022/05/19 02:22:45;;;;;;;5.80;1.73;;;;;;;9.79;71.76;102711.75;2508603;23;20432;-68
2022/05/19 02:23:46;;;;;;;8.67;2.00;;;;;;;9.80;71.45;102716.09;2508435;23;20391;-67
2022/05/19 02:25:13;;;;;;;5.57;1.80;;;;;;;9.81;71.90;102718.50;2508472;23;20380;-67
2022/05/19 02:26:14;;;;;;;8.17;2.17;;;;;;;9.83;72.27;102716.13;2461102;24;20215;-67
2022/05/19 02:27:36;;;;;;;6.33;1.83;;;;;;;9.83;71.52;102729.16;2513988;23;20477;-68
2022/05/19 02:28:49;;;;;;;4.13;2.00;;;;;;;9.88;72.23;102721.34;2508517;23;20847;-68
2022/05/19 02:29:50;;;;;;;10.10;2.13;;;;;;;9.89;71.97;102716.59;2511080;23;20437;-68
2022/05/19 02:30:51;;;;;;;4.70;1.70;;;;;;;9.83;72.22;102710.59;2520645;23;20476;-67
2022/05/19 02:31:52;;;;;;;8.53;2.10;;;;;;;9.39;72.26;102639.63;2521105;23;20437;-67
2022/05/19 02:32:53;;;;;;;5.23;1.80;;;;;;;9.76;72.28;102702.22;2521176;23;20158;-68
2022/05/19 02:33:53;;;;;;;6.80;2.30;;;;;;;9.81;72.63;102699.09;2521119;23;20380;-67
2022/05/19 02:34:53;;;;;;;5.13;2.07;;;;;;;9.95;72.37;102724.19;2521014;23;20177;-68
2022/05/19 02:35:54;;;;;;;5.17;1.90;;;;;;;9.92;72.05;102708.34;2521201;23;20234;-68
2022/05/19 02:36:55;;;;;;;4.30;2.03;;;;;;;10.00;72.39;102707.22;2507018;23;20220;-68
2022/05/19 02:37:57;;;;;;;3.30;2.20;;;;;;;9.82;72.40;102667.47;2507646;23;20387;-68
2022/05/19 02:38:58;;;;;;;6.93;2.33;;;;;;;10.23;72.16;102730.09;2521081;23;20165;-68
2022/05/19 02:39:59;;;;;;;6.13;2.30;;;;;;;10.19;72.22;102709.84;2521125;23;20382;-68
2022/05/19 02:41:00;;;;;;;5.37;2.03;;;;;;;10.14;72.46;102726.81;2521195;23;20227;-68
2022/05/19 02:42:00;;;;;;;4.03;2.20;;;;;;;10.26;72.03;102728.53;2521162;23;20886;-67
2022/05/19 02:43:02;;;;;;;6.43;2.73;;;;;;;10.23;72.44;102724.56;2521074;23;20206;-68
2022/05/19 02:44:03;;;;;;;6.23;2.70;;;;;;;10.23;72.30;102732.06;2508394;23;20223;-68
2022/05/19 02:45:05;;;;;;;7.80;2.60;;;;;;;10.24;72.14;102731.69;2508528;23;20394;-68
2022/05/19 02:46:05;;;;;;;3.93;2.50;;;;;;;10.13;72.15;102725.22;2520944;23;20403;-68
2022/05/19 02:47:06;;;;;;;7.77;2.63;;;;;;;9.99;71.84;102699.31;2520099;23;20394;-68
2022/05/19 02:48:08;;;;;;;10.07;3.20;;;;;;;10.27;71.69;102736.47;2519880;23;20151;-68
2022/05/19 02:49:09;;;;;;;6.20;2.60;;;;;;;10.25;72.14;102732.50;2521099;23;20510;-68
2022/05/19 02:50:11;;;;;;;9.87;2.60;;;;;;;10.25;72.36;102738.03;2508410;23;20391;-68
2022/05/19 02:51:12;;;;;;;4.90;2.70;;;;;;;10.25;72.05;102746.34;2508692;23;20466;-68
2022/05/19 02:52:12;;;;;;;8.53;2.63;;;;;;;10.23;72.06;102738.41;2521211;23;20371;-68
2022/05/19 02:53:13;;;;;;;5.90;2.60;;;;;;;10.24;71.76;102751.09;2521061;23;20476;-68
2022/05/19 02:54:20;;;;;;;6.60;2.70;;;;;;;10.27;71.97;102752.28;2521139;23;20547;-68
2022/05/19 02:55:21;;;;;;;5.07;2.83;;;;;;;9.86;71.79;102704.31;2521001;23;20370;-68
2022/05/19 02:56:21;;;;;;;6.93;3.57;;;;;;;10.30;72.02;102755.09;2521123;23;20928;-68
2022/05/19 02:57:22;;;;;;;4.97;2.90;;;;;;;10.30;71.94;102749.56;2519433;23;20151;-68
2022/05/19 02:58:22;;;;;;;4.60;3.00;;;;;;;10.29;72.34;102742.44;2520315;23;20246;-68
2022/05/19 02:59:23;;;;;;;9.63;3.50;;;;;;;10.30;71.97;102748.78;2521110;23;20152;-68
2022/05/19 03:00:25;;;;;;;6.73;3.47;;;;;;;10.33;72.42;102748.81;2521070;23;20321;-68
2022/05/19 03:01:25;;;;;;;9.80;3.67;;;;;;;10.36;72.63;102747.25;2521164;23;20154;-68
2022/05/19 03:02:26;;;;;;;9.43;3.93;;;;;;;10.39;72.33;102747.28;2520842;23;20750;-68
2022/05/19 03:03:27;;;;;;;6.73;3.10;;;;;;;10.41;72.40;102750.47;2521073;23;20207;-68
2022/05/19 03:04:27;;;;;;;6.73;3.90;;;;;;;10.46;72.37;102755.66;2521047;23;20182;-68
2022/05/19 03:05:31;;;;;;;7.87;3.50;;;;;;;10.51;72.54;102751.78;2521013;23;20630;-68
2022/05/19 03:06:31;;;;;;;6.75;4.00;;;;;;;10.54;72.73;102751.81;2521063;23;20177;-68
2022/05/19 03:07:31;;;;;;;4.80;3.70;;;;;;;10.49;72.85;102754.09;2519313;23;20158;-68
2022/05/19 03:08:32;;;;;;;6.37;4.07;;;;;;;10.53;72.51;102754.94;2520372;23;20150;-68
2022/05/19 03:09:33;;;;;;;5.60;4.13;;;;;;;10.59;72.98;102754.22;2521150;23;20157;-68
2022/05/19 03:10:36;;;;;;;6.43;4.60;;;;;;;10.62;72.75;102755.44;2521071;23;20150;-68
2022/05/19 03:11:36;;;;;;;8.95;5.18;;;;;;;10.46;72.88;102732.72;2521135;23;20389;-68
2022/05/19 03:12:37;;;;;;;10.83;5.27;;;;;;;10.76;73.09;102755.59;2508250;23;20159;-68
2022/05/19 03:13:37;;;;;;;7.87;5.40;;;;;;;10.64;72.85;102737.25;2508450;23;20148;-68
2022/05/19 03:14:38;;;;;;;20.90;5.63;;;;;;;10.82;72.88;102759.59;2521008;23;20150;-68
2022/05/19 03:15:38;;;;;;;11.77;5.60;;;;;;;10.79;72.75;102774.22;2521017;23;20190;-68
2022/05/19 03:16:40;;;;;;;11.17;5.67;;;;;;;10.01;72.89;102641.56;2520737;23;20609;-68
2022/05/19 03:17:40;;;;;;;8.27;5.23;;;;;;;10.82;72.90;102765.94;2520079;23;20159;-68
2022/05/19 03:18:41;;;;;;;8.97;6.13;;;;;;;10.61;72.84;102728.91;2520886;23;20393;-68
2022/05/19 03:19:41;;;;;;;11.17;6.07;;;;;;;10.90;73.26;102764.00;2520527;23;20610;-68
2022/05/19 03:20:42;;;;;;;8.83;5.77;;;;;;;10.67;73.21;102730.91;2521129;23;20186;-68
2022/05/19 03:21:43;;;;;;;20.90;5.50;;;;;;;11.01;73.14;102771.25;2520965;23;20635;-68
2022/05/19 03:22:44;;;;;;;26.03;7.20;;;;;;;10.75;72.96;102724.28;2521028;23;20217;-68
2022/05/19 03:23:45;;;;;;;11.90;5.60;;;;;;;10.73;72.92;102718.31;2521143;23;20210;-68
2022/05/19 03:24:45;;;;;;;6.13;5.00;;;;;;;11.12;72.68;102765.81;2520947;23;20466;-68
2022/05/19 03:25:46;;;;;;;6.23;5.00;;;;;;;10.65;73.19;102683.38;2520997;23;20162;-68
2022/05/19 03:26:46;;;;;;;6.80;4.60;;;;;;;11.21;73.15;102771.78;2507522;23;20165;-68
2022/05/19 03:27:47;;;;;;;6.17;4.70;;;;;;;11.29;73.00;102771.50;2507567;23;20154;-68
2022/05/19 03:28:47;;;;;;;5.27;4.57;;;;;;;11.32;72.71;102767.94;2521012;23;20569;-68
2022/05/19 03:29:49;;;;;;;7.63;4.77;;;;;;;11.13;72.53;102736.88;2507577;23;20162;-68
2022/05/19 03:30:49;;;;;;;7.50;4.37;;;;;;;11.42;72.65;102774.75;2508596;23;20609;-68
2022/05/19 03:31:50;;;;;;;7.97;4.67;;;;;;;10.99;72.66;102695.94;2521102;23;20709;-68
2022/05/19 03:32:50;;;;;;;9.27;4.53;;;;;;;11.53;72.22;102770.06;2521013;23;20604;-68
2022/05/19 03:33:51;;;;;;;8.67;4.83;;;;;;;11.59;72.18;102768.53;2521055;23;20158;-68
2022/05/19 03:34:51;;;;;;;6.80;4.50;;;;;;;11.39;72.04;102740.22;2521015;23;20218;-68
2022/05/19 03:35:59;;;;;;;16.57;5.60;;;;;;;10.83;71.70;102628.03;2520992;23;20213;-68
2022/05/19 03:37:04;;;;;;;20.77;5.87;;;;;;;11.60;71.69;102740.38;2520070;23;20160;-68
2022/05/19 03:38:05;;;;;;;14.40;5.00;;;;;;;11.14;71.54;102658.78;2520189;23;20502;-68
2022/05/19 03:39:05;;;;;;;10.37;4.63;;;;;;;10.35;71.21;102537.81;2521070;23;20395;-68
2022/05/19 03:40:07;;;;;;;9.37;4.03;;;;;;;11.75;71.48;102752.34;2520211;23;20784;-68
2022/05/19 03:41:08;;;;;;;7.57;3.90;;;;;;;11.63;71.00;102736.03;2521060;23;20543;-68
2022/05/19 03:42:09;;;;;;;10.27;4.50;;;;;;;11.40;71.04;102683.50;2521373;23;20385;-68
2022/05/19 03:43:10;;;;;;;8.70;3.43;;;;;;;11.88;71.08;102759.97;2520851;23;20477;-68
2022/05/19 03:44:11;;;;;;;6.87;3.93;;;;;;;11.88;70.99;102759.97;2521001;23;20434;-68
2022/05/19 03:45:11;;;;;;;8.47;3.63;;;;;;;11.56;71.07;102703.44;2521049;23;20410;-68
2022/05/19 03:46:12;;;;;;;8.87;4.27;;;;;;;11.98;71.04;102759.22;2521029;23;20186;-68
2022/05/19 03:47:13;;;;;;;7.53;4.23;;;;;;;11.95;70.71;102754.41;2520232;23;20151;-68
2022/05/19 03:48:14;;;;;;;8.80;4.30;;;;;;;12.07;71.09;102770.75;2520242;23;20280;-68
2022/05/19 03:49:15;;;;;;;7.40;4.30;;;;;;;12.11;70.96;102770.78;2521022;23;20197;-68
2022/05/19 03:50:34;;;;;;;9.00;4.13;;;;;;;12.16;70.82;102771.22;2507960;23;20399;-68
2022/05/19 03:51:35;;;;;;;7.33;3.63;;;;;;;12.23;70.67;102762.06;2512194;23;20168;-68
2022/05/19 03:52:40;;;;;;;5.33;3.67;;;;;;;12.27;70.70;102772.03;2508231;23;20395;-68
2022/05/19 03:53:41;;;;;;;6.03;3.33;;;;;;;12.01;70.72;102716.75;2509123;23;21004;-68
2022/05/19 03:54:41;;;;;;;11.70;4.10;;;;;;;12.32;70.77;102763.31;2508268;23;20788;-68
2022/05/19 03:55:42;;;;;;;7.87;3.60;;;;;;;12.34;70.72;102765.69;2508387;23;20152;-68
2022/05/19 03:56:42;;;;;;;5.37;3.50;;;;;;;12.34;70.63;102763.69;2520303;23;20234;-75
2022/05/19 03:57:43;;;;;;;6.30;3.70;;;;;;;12.12;70.65;102753.72;2507505;23;20198;-67
2022/05/19 03:58:43;;;;;;;9.23;3.20;;;;;;;12.39;70.45;102768.88;2507248;23;20426;-66
2022/05/19 03:59:44;;;;;;;8.20;3.63;;;;;;;11.98;70.30;102711.97;2519632;23;20205;-66
2022/05/19 04:00:44;;;;;;;6.80;3.40;;;;;;;11.91;70.46;102684.16;2519394;23;20159;-67
2022/05/19 04:01:45;;;;;;;4.13;3.30;;;;;;;12.11;70.30;102721.56;2507599;23;20167;-67
2022/05/19 04:02:46;;;;;;;7.70;3.40;;;;;;;12.48;70.28;102766.53;2508222;23;20159;-66
2022/05/19 04:03:49;;;;;;;6.67;3.47;;;;;;;12.53;70.20;102762.56;2508652;23;20197;-67
2022/05/19 04:04:49;;;;;;;5.37;3.23;;;;;;;12.56;69.90;102765.34;2508995;23;20478;-66
2022/05/19 04:05:50;;;;;;;5.77;3.00;;;;;;;12.59;70.24;102775.69;2508646;23;20389;-66
2022/05/19 04:06:50;;;;;;;5.97;3.27;;;;;;;12.60;70.19;102749.44;2508067;23;20214;-67
2022/05/19 04:07:51;;;;;;;8.07;3.00;;;;;;;12.66;70.10;102759.00;2508755;23;20151;-67
2022/05/19 04:08:52;;;;;;;6.50;2.60;;;;;;;12.78;69.99;102764.19;2509603;23;20159;-67
2022/05/19 04:09:53;;;;;;;6.27;2.60;;;;;;;12.48;69.69;102716.47;2509554;23;20641;-67
2022/05/19 04:10:54;;;;;;;6.20;2.70;;;;;;;12.86;69.55;102770.56;2508949;23;20567;-66
2022/05/19 04:11:54;;;;;;;4.30;2.40;;;;;;;12.32;69.22;102679.91;2508910;23;20493;-67
2022/05/19 04:12:56;;;;;;;7.40;2.73;;;;;;;12.95;69.39;102766.19;2509569;23;20455;-67
2022/05/19 04:13:56;;;;;;;12.40;3.30;;;;;;;13.01;69.26;102770.19;2509748;23;20258;-66
2022/05/19 04:14:57;;;;;;;9.90;4.00;;;;;;;12.62;69.19;102705.38;2508800;23;20391;-66
2022/05/19 04:15:57;;;;;;;9.80;3.33;;;;;;;12.59;68.96;102688.66;2508989;23;20179;-66
2022/05/19 04:16:58;;;;;;;14.47;5.90;;;;;;;13.12;69.16;102770.19;2508885;23;20570;-66
2022/05/19 04:17:58;;;;;;;5.87;2.30;;;;;;;12.89;68.95;102731.59;2508099;23;20174;-67
2022/05/19 04:18:59;;;;;;;3.83;2.60;;;;;;;13.12;68.98;102770.19;2508838;23;20238;-66
2022/05/19 04:20:01;;;;;;;8.57;2.80;;;;;;;13.13;68.74;102771.78;2509296;23;20180;-66
2022/05/19 04:21:01;;;;;;;5.70;2.33;;;;;;;13.14;68.68;102776.16;2508885;23;20214;-67
2022/05/19 04:22:02;;;;;;;2.90;2.00;;;;;;;13.20;68.57;102767.00;2508934;23;20376;-66
2022/05/19 04:23:03;;;;;;;5.97;2.17;;;;;;;13.28;68.47;102763.00;2509781;23;20156;-67
2022/05/19 04:24:06;;;;;;;3.07;1.90;;;;;;;13.30;68.18;102765.41;2509652;23;20207;-66
2022/05/19 04:25:08;;;;;;;6.80;2.20;;;;;;;13.35;68.32;102765.00;2509618;23;20439;-67
2022/05/19 04:26:09;;;;;;;4.17;2.07;;;;;;;13.37;68.29;102770.97;2508813;23;20467;-66
2022/05/19 04:27:14;;;;;;;8.70;2.27;;;;;;;13.34;68.17;102764.22;2508011;23;20434;-66
2022/05/19 04:28:15;;;;;;;9.17;2.67;;;;;;;13.37;68.30;102770.97;2508976;23;20160;-67
2022/05/19 04:29:15;;;;;;;4.03;1.83;;;;;;;13.42;68.16;102767.78;2509496;23;20381;-66
2022/05/19 04:30:16;;;;;;;2.60;1.70;;;;;;;13.40;67.32;102773.75;2509199;23;20480;-67
2022/05/19 04:31:16;;;;;;;4.37;1.70;;;;;;;13.40;67.65;102770.16;2508344;23;20159;-66
2022/05/19 04:32:17;;;;;;;3.47;1.60;;;;;;;13.41;67.53;102769.78;2509203;23;20183;-66
2022/05/19 04:33:17;;;;;;;4.40;1.90;;;;;;;13.39;67.10;102769.38;2509048;23;20211;-66
2022/05/19 04:34:18;;;;;;;5.40;1.93;;;;;;;12.97;67.22;102696.25;2509611;23;20148;-66
2022/05/19 04:35:19;;;;;;;3.60;1.83;;;;;;;13.34;66.92;102766.19;2506911;23;20152;-66
2022/05/19 04:36:19;;;;;;;3.17;1.70;;;;;;;13.17;67.19;102745.53;2505800;23;20605;-67
2022/05/19 04:37:19;;;;;;;3.60;1.93;;;;;;;13.27;67.30;102764.22;2505998;23;20606;-67
2022/05/19 04:38:20;;;;;;;4.70;2.13;;;;;;;13.33;67.57;102764.63;2508803;23;20148;-67
2022/05/19 04:39:21;;;;;;;5.87;2.23;;;;;;;13.36;67.44;102767.38;2509512;23;20151;-66
2022/05/19 04:40:22;;;;;;;5.97;3.00;;;;;;;13.28;67.47;102756.66;2507304;23;20673;-66
2022/05/19 04:41:22;;;;;;;7.27;2.57;;;;;;;13.47;67.55;102773.72;2507643;23;20378;-66
2022/05/19 04:42:23;;;;;;;7.07;3.57;;;;;;;12.97;67.55;102691.44;2508983;23;20152;-67
2022/05/19 04:43:23;;;;;;;5.80;2.87;;;;;;;13.32;67.83;102746.31;2508754;23;20406;-67
2022/05/19 04:44:24;;;;;;;8.20;2.63;;;;;;;13.39;67.47;102761.03;2508531;23;20593;-66
2022/05/19 04:45:24;;;;;;;8.10;3.20;;;;;;;13.51;67.51;102782.06;2508432;23;20155;-66
2022/05/19 04:46:25;;;;;;;14.30;3.20;;;;;;;13.20;67.46;102732.78;2508445;23;20302;-66
2022/05/19 04:47:26;;;;;;;11.30;3.10;;;;;;;13.48;67.67;102783.66;2506577;23;20208;-66
2022/05/19 04:48:27;;;;;;;7.40;3.63;;;;;;;13.48;67.84;102778.09;2509504;23;20157;-66
2022/05/19 04:49:28;;;;;;;11.30;3.40;;;;;;;13.56;68.16;102779.69;2508866;23;20883;-66
2022/05/19 04:50:29;;;;;;;7.23;3.57;;;;;;;13.55;68.11;102786.47;2509639;23;20502;-66
2022/05/19 04:51:29;;;;;;;9.63;3.70;;;;;;;13.36;68.28;102747.09;2509413;23;20377;-67
2022/05/19 04:52:30;;;;;;;11.20;4.13;;;;;;;13.64;68.34;102784.06;2505362;23;20213;-67
2022/05/19 04:53:31;;;;;;;9.93;4.00;;;;;;;13.53;68.31;102769.34;2507950;23;20625;-66
2022/05/19 04:54:31;;;;;;;11.00;3.70;;;;;;;13.33;68.07;102712.47;2505392;23;20648;-66
2022/05/19 04:55:35;;;;;;;8.37;3.83;;;;;;;13.55;68.20;102752.22;2506893;23;20577;-66
2022/05/19 04:56:36;;;;;;;10.10;4.37;;;;;;;13.91;68.23;102793.53;2506497;23;20570;-67
2022/05/19 04:57:38;;;;;;;9.87;4.30;;;;;;;14.00;68.16;102788.34;2506719;23;20378;-67